createdAt,value
2023-05-14T00:00:11.776Z,100531.63
2023-05-14T00:03:13.342Z,100543.28
2023-05-14T00:06:15.256Z,100547.34
2023-05-14T00:09:16.968Z,100535.31
2023-05-14T00:12:18.377Z,100542.63
2023-05-14T00:15:19.799Z,100545.38
2023-05-14T00:18:21.182Z,100541.31
2023-05-14T00:21:22.709Z,100534.97
2023-05-14T00:24:24.673Z,100529.66
2023-05-14T00:27:26.080Z,100533.97
2023-05-14T00:30:27.539Z,100531.56
2023-05-14T00:33:28.943Z,100520.31
2023-05-14T00:36:31.311Z,100529.28
2023-05-14T00:39:32.823Z,100522.97
2023-05-14T00:42:34.703Z,100526.56
2023-05-14T00:45:36.305Z,100525.47
2023-05-14T00:48:38.022Z,100519.16
2023-05-14T00:51:41.323Z,100520.94
2023-05-14T00:54:42.834Z,100522.56
2023-05-14T00:57:44.652Z,100517.47
2023-05-14T01:00:46.081Z,100522.47
2023-05-14T01:03:48.974Z,100518.69
2023-05-14T01:07:12.066Z,100514.22
2023-05-14T01:10:21.754Z,100515.78
2023-05-14T01:13:33.630Z,100524.69
2023-05-14T01:16:37.301Z,100514.44
2023-05-14T01:19:44.214Z,100516.06
2023-05-14T01:22:46.318Z,100512.88
2023-05-14T01:25:47.765Z,100512.00
2023-05-14T01:28:51.624Z,100505.63
2023-05-14T01:31:57.220Z,100508.03
2023-05-14T01:35:00.361Z,100515.66
2023-05-14T01:38:06.656Z,100501.41
2023-05-14T01:41:08.306Z,100490.31
2023-05-14T01:44:10.478Z,100491.41
2023-05-14T01:47:12.270Z,100494.06
2023-05-14T01:50:13.692Z,100487.97
2023-05-14T01:53:15.229Z,100487.69
2023-05-14T01:56:18.324Z,100491.56
2023-05-14T01:59:19.741Z,100499.06
2023-05-14T02:02:21.637Z,100494.13
2023-05-14T02:05:23.051Z,100501.31
2023-05-14T02:08:24.453Z,100504.34
2023-05-14T02:11:26.218Z,100498.47
2023-05-14T02:14:27.610Z,100494.09
2023-05-14T02:17:29.236Z,100502.75
2023-05-14T02:20:30.633Z,100504.19
2023-05-14T02:23:41.001Z,100501.44
2023-05-14T02:26:43.333Z,100499.25
2023-05-14T02:29:44.990Z,100505.19
2023-05-14T02:32:46.430Z,100493.16
2023-05-14T02:35:47.881Z,100488.28
2023-05-14T02:38:49.288Z,100493.31
2023-05-14T02:41:50.685Z,100497.66
2023-05-14T02:44:52.421Z,100502.03
2023-05-14T02:47:53.852Z,100490.50
2023-05-14T02:50:55.289Z,100482.72
2023-05-14T02:53:56.835Z,100484.66
2023-05-14T02:56:58.224Z,100493.56
2023-05-14T02:59:59.679Z,100494.91
2023-05-14T03:03:01.618Z,100490.41
2023-05-14T03:06:04.296Z,100493.28
2023-05-14T03:09:05.724Z,100496.16
2023-05-14T03:12:07.732Z,100494.16
2023-05-14T03:15:09.644Z,100495.34
2023-05-14T03:18:11.014Z,100495.56
2023-05-14T03:21:12.471Z,100488.34
2023-05-14T03:24:13.843Z,100491.78
2023-05-14T03:27:15.270Z,100492.69
2023-05-14T03:30:16.702Z,100496.34
2023-05-14T03:33:18.093Z,100499.84
2023-05-14T03:36:19.513Z,100506.19
2023-05-14T03:39:22.399Z,100502.44
2023-05-14T03:42:23.879Z,100495.13
2023-05-14T03:45:26.803Z,100496.16
2023-05-14T03:48:28.407Z,100500.66
2023-05-14T03:51:30.074Z,100493.56
2023-05-14T03:54:31.624Z,100498.44
2023-05-14T03:57:34.610Z,100497.72
2023-05-14T04:00:37.132Z,100491.41
2023-05-14T04:03:38.741Z,100492.31
2023-05-14T04:06:40.334Z,100491.41
2023-05-14T04:09:41.729Z,100495.78
2023-05-14T04:12:43.269Z,100493.44
2023-05-14T04:15:45.410Z,100495.56
2023-05-14T04:18:48.168Z,100494.63
2023-05-14T04:21:49.926Z,100496.19
2023-05-14T04:24:51.961Z,100491.97
2023-05-14T04:27:53.460Z,100497.22
2023-05-14T04:30:55.346Z,100505.88
2023-05-14T04:33:56.871Z,100501.50
2023-05-14T04:36:58.252Z,100502.84
2023-05-14T04:40:00.855Z,100498.19
2023-05-14T04:43:02.537Z,100492.41
2023-05-14T04:46:03.983Z,100506.59
2023-05-14T04:49:05.430Z,100506.16
2023-05-14T04:52:07.047Z,100498.06
2023-05-14T04:55:09.025Z,100515.22
2023-05-14T04:58:10.413Z,100511.91
2023-05-14T05:01:12.127Z,100515.56
2023-05-14T05:04:13.601Z,100511.19
2023-05-14T05:07:15.049Z,100505.31
2023-05-14T05:10:16.516Z,100513.56
2023-05-14T05:13:17.912Z,100508.63
2023-05-14T05:16:19.304Z,100504.59
2023-05-14T05:19:26.440Z,100501.72
2023-05-14T05:22:33.857Z,100503.31
2023-05-14T05:25:35.236Z,100504.53
2023-05-14T05:28:36.600Z,100506.88
2023-05-14T05:31:38.130Z,100507.47
2023-05-14T05:34:39.558Z,100507.88
2023-05-14T05:37:41.407Z,100507.13
2023-05-14T05:40:42.888Z,100510.78
2023-05-14T05:43:44.325Z,100513.91
2023-05-14T05:46:45.843Z,100515.72
2023-05-14T05:49:47.290Z,100515.19
2023-05-14T05:52:48.697Z,100510.28
2023-05-14T05:55:51.635Z,100521.38
2023-05-14T05:58:53.125Z,100508.31
2023-05-14T06:01:54.605Z,100513.88
2023-05-14T06:04:56.038Z,100508.41
2023-05-14T06:07:57.500Z,100512.97
2023-05-14T06:10:59.143Z,100510.44
2023-05-14T06:14:00.620Z,100506.69
2023-05-14T06:17:07.478Z,100506.56
2023-05-14T06:20:09.861Z,100503.28
2023-05-14T06:23:12.156Z,100507.88
2023-05-14T06:26:13.610Z,100505.13
2023-05-14T06:29:14.970Z,100498.09
2023-05-14T06:32:16.818Z,100494.38
2023-05-14T06:35:19.103Z,100490.75
2023-05-14T06:38:20.596Z,100489.81
2023-05-14T06:41:22.584Z,100488.34
2023-05-14T06:44:23.981Z,100486.63
2023-05-14T06:47:25.470Z,100482.59
2023-05-14T06:50:26.878Z,100483.09
2023-05-14T06:53:28.270Z,100484.38
2023-05-14T06:56:29.637Z,100480.63
2023-05-14T06:59:31.099Z,100481.47
2023-05-14T07:02:32.549Z,100483.59
2023-05-14T07:05:33.984Z,100478.44
2023-05-14T07:08:35.996Z,100475.97
2023-05-14T07:11:37.460Z,100471.16
2023-05-14T07:14:38.851Z,100475.25
2023-05-14T07:17:40.420Z,100465.16
2023-05-14T07:20:41.852Z,100470.31
2023-05-14T07:23:43.282Z,100467.03
2023-05-14T07:26:44.713Z,100462.34
2023-05-14T07:29:46.117Z,100455.31
2023-05-14T07:32:47.586Z,100457.00
2023-05-14T07:35:49.166Z,100447.31
2023-05-14T07:38:50.629Z,100448.66
2023-05-14T07:41:52.039Z,100450.91
2023-05-14T07:44:53.510Z,100443.84
2023-05-14T07:47:55.007Z,100454.19
2023-05-14T07:50:56.487Z,100446.97
2023-05-14T07:53:57.872Z,100448.59
2023-05-14T07:56:59.246Z,100432.22
2023-05-14T08:00:00.650Z,100434.78
2023-05-14T08:03:02.304Z,100432.44
2023-05-14T08:06:04.362Z,100429.59
2023-05-14T08:09:05.814Z,100429.88
2023-05-14T08:12:08.245Z,100433.81
2023-05-14T08:15:10.135Z,100436.06
2023-05-14T08:18:11.593Z,100428.13
2023-05-14T08:21:13.110Z,100423.94
2023-05-14T08:24:14.971Z,100424.00
2023-05-14T08:27:18.970Z,100426.91
2023-05-14T08:30:21.324Z,100427.34
2023-05-14T08:33:23.283Z,100417.38
2023-05-14T08:36:24.743Z,100421.63
2023-05-14T08:39:26.154Z,100419.72
2023-05-14T08:42:28.736Z,100431.78
2023-05-14T08:45:33.954Z,100424.88
2023-05-14T08:48:36.040Z,100422.91
2023-05-14T08:51:38.349Z,100418.44
2023-05-14T08:54:40.433Z,100415.16
2023-05-14T08:57:41.968Z,100403.72
2023-05-14T09:00:43.427Z,100406.69
2023-05-14T09:03:45.741Z,100398.44
2023-05-14T09:06:49.884Z,100406.69
2023-05-14T09:09:52.602Z,100399.63
2023-05-14T09:12:54.266Z,100403.72
2023-05-14T09:15:57.228Z,100406.84
2023-05-14T09:18:59.851Z,100401.09
2023-05-14T09:22:01.351Z,100400.84
2023-05-14T09:25:09.232Z,100397.53
2023-05-14T09:28:10.745Z,100391.84
2023-05-14T09:31:12.309Z,100391.56
2023-05-14T09:34:24.317Z,100391.72
2023-05-14T09:37:26.253Z,100385.63
2023-05-14T09:40:27.883Z,100392.03
2023-05-14T09:43:29.578Z,100385.81
2023-05-14T09:46:31.831Z,100378.19
2023-05-14T09:49:33.728Z,100386.28
2023-05-14T09:52:35.504Z,100388.28
2023-05-14T09:55:37.899Z,100387.97
2023-05-14T09:58:39.482Z,100380.47
2023-05-14T10:01:43.612Z,100380.53
2023-05-14T10:04:45.266Z,100384.78
2023-05-14T10:07:49.698Z,100388.97
2023-05-14T10:10:52.202Z,100385.97
2023-05-14T10:14:18.171Z,100379.50
2023-05-14T10:17:21.700Z,100378.66
2023-05-14T10:20:25.059Z,100384.25
2023-05-14T10:23:27.275Z,100379.56
2023-05-14T10:26:28.814Z,100385.97
2023-05-14T10:29:37.662Z,100385.19
2023-05-14T10:32:41.719Z,100378.97
2023-05-14T10:36:03.127Z,100382.06
2023-05-14T10:39:04.982Z,100382.56
2023-05-14T10:42:08.102Z,100383.69
2023-05-14T10:45:18.667Z,100384.06
2023-05-14T10:48:20.557Z,100375.22
2023-05-14T10:51:23.369Z,100379.34
2023-05-14T10:54:27.822Z,100380.78
2023-05-14T10:57:32.173Z,100378.19
2023-05-14T11:00:37.732Z,100369.88
2023-05-14T11:03:44.316Z,100376.09
2023-05-14T11:06:47.324Z,100367.94
2023-05-14T11:09:51.056Z,100363.72
2023-05-14T11:12:52.765Z,100361.38
2023-05-14T11:15:55.649Z,100360.06
2023-05-14T11:19:04.654Z,100364.44
2023-05-14T11:22:07.842Z,100356.44
2023-05-14T11:25:10.920Z,100354.63
2023-05-14T11:28:12.308Z,100354.31
2023-05-14T11:31:14.086Z,100350.03
2023-05-14T11:34:15.549Z,100354.53
2023-05-14T11:37:17.865Z,100355.66
2023-05-14T11:40:19.871Z,100346.69
2023-05-14T11:43:23.766Z,100339.91
2023-05-14T11:46:26.079Z,100347.00
2023-05-14T11:49:31.009Z,100339.38
2023-05-14T11:52:37.847Z,100335.44
2023-05-14T11:55:39.799Z,100342.72
2023-05-14T11:58:47.970Z,100331.59
2023-05-14T12:01:50.747Z,100326.34
2023-05-14T12:04:53.459Z,100312.94
2023-05-14T12:07:56.086Z,100327.50
2023-05-14T12:11:01.262Z,100326.47
2023-05-14T12:14:11.118Z,100315.94
2023-05-14T12:17:20.779Z,100309.47
2023-05-14T12:20:23.468Z,100304.97
2023-05-14T12:23:29.812Z,100314.31
2023-05-14T12:26:34.648Z,100311.88
2023-05-14T12:29:38.978Z,100298.84
2023-05-14T12:32:41.297Z,100306.25
2023-05-14T12:35:42.974Z,100304.22
2023-05-14T12:38:44.468Z,100300.81
2023-05-14T12:41:45.842Z,100293.22
2023-05-14T12:44:47.207Z,100293.56
2023-05-14T12:47:48.635Z,100293.56
2023-05-14T12:50:50.172Z,100284.78
2023-05-14T12:53:53.898Z,100282.91
2023-05-14T12:56:55.301Z,100275.75
2023-05-14T12:59:57.574Z,100275.31
2023-05-14T13:02:59.003Z,100269.88
2023-05-14T13:06:01.239Z,100268.50
2023-05-14T13:09:03.216Z,100263.97
2023-05-14T13:12:05.111Z,100266.72
2023-05-14T13:15:07.102Z,100264.22
2023-05-14T13:18:08.585Z,100257.22
2023-05-14T13:21:12.566Z,100257.72
2023-05-14T13:24:13.971Z,100251.91
2023-05-14T13:27:16.060Z,100251.66
2023-05-14T13:30:18.359Z,100246.91
2023-05-14T13:33:19.845Z,100240.72
2023-05-14T13:36:21.303Z,100239.28
2023-05-14T13:39:26.797Z,100232.72
2023-05-14T13:42:28.291Z,100228.44
2023-05-14T13:45:29.998Z,100226.34
2023-05-14T13:48:31.672Z,100221.97
2023-05-14T13:51:34.939Z,100215.06
2023-05-14T13:54:36.994Z,100210.63
2023-05-14T13:57:39.639Z,100211.25
2023-05-14T14:00:42.616Z,100199.09
2023-05-14T14:03:43.987Z,100203.66
2023-05-14T14:06:45.814Z,100191.75
2023-05-14T14:09:47.262Z,100193.47
2023-05-14T14:12:49.051Z,100190.34
2023-05-14T14:15:51.136Z,100193.06
2023-05-14T14:18:52.791Z,100193.81
2023-05-14T14:21:54.300Z,100187.97
2023-05-14T14:24:55.760Z,100191.38
2023-05-14T14:27:57.165Z,100183.69
2023-05-14T14:30:58.641Z,100179.03
2023-05-14T14:34:00.155Z,100165.09
2023-05-14T14:37:02.534Z,100164.16
2023-05-14T14:40:07.136Z,100167.03
2023-05-14T14:43:08.677Z,100160.13
2023-05-14T14:46:10.933Z,100162.28
2023-05-14T14:49:12.390Z,100151.97
2023-05-14T14:52:13.839Z,100148.44
2023-05-14T14:55:15.348Z,100146.88
2023-05-14T14:58:18.636Z,100154.19
2023-05-14T15:01:21.221Z,100149.72
2023-05-14T15:04:22.685Z,100142.31
2023-05-14T15:07:24.217Z,100142.31
2023-05-14T15:10:28.806Z,100142.13
2023-05-14T15:13:31.685Z,100144.16
2023-05-14T15:16:33.117Z,100142.31
2023-05-14T15:19:35.071Z,100137.59
2023-05-14T15:22:36.996Z,100144.97
2023-05-14T15:25:38.581Z,100143.19
2023-05-14T15:28:39.962Z,100139.72
2023-05-14T15:31:41.976Z,100129.22
2023-05-14T15:34:43.444Z,100135.50
2023-05-14T15:37:45.460Z,100131.31
2023-05-14T15:40:46.993Z,100132.69
2023-05-14T15:43:48.475Z,100117.84
2023-05-14T15:46:50.017Z,100123.34
2023-05-14T15:49:51.535Z,100123.53
2023-05-14T15:52:53.536Z,100121.31
2023-05-14T15:55:56.463Z,100117.03
2023-05-14T15:58:57.883Z,100120.84
2023-05-14T16:01:59.926Z,100121.53
2023-05-14T16:05:01.377Z,100120.59
2023-05-14T16:08:03.609Z,100121.97
2023-05-14T16:11:06.199Z,100110.75
2023-05-14T16:14:07.617Z,100110.50
2023-05-14T16:17:09.328Z,100108.41
2023-05-14T16:20:11.600Z,100095.34
2023-05-14T16:23:12.986Z,100096.69
2023-05-14T16:26:14.420Z,100098.16
2023-05-14T16:29:15.816Z,100097.56
2023-05-14T16:32:18.015Z,100095.66
2023-05-14T16:35:19.556Z,100101.88
2023-05-14T16:38:21.027Z,100099.78
2023-05-14T16:41:22.434Z,100100.88
2023-05-14T16:44:23.818Z,100091.91
2023-05-14T16:47:27.088Z,100095.56
2023-05-14T16:50:28.728Z,100108.94
2023-05-14T16:53:30.232Z,100100.47
2023-05-14T16:56:32.320Z,100102.03
2023-05-14T16:59:33.699Z,100103.63
2023-05-14T17:02:35.146Z,100106.03
2023-05-14T17:05:37.647Z,100102.31
2023-05-14T17:08:39.022Z,100104.34
2023-05-14T17:11:40.414Z,100102.91
2023-05-14T17:14:41.841Z,100102.16
2023-05-14T17:17:43.676Z,100112.13
2023-05-14T17:20:46.251Z,100110.72
2023-05-14T17:23:47.938Z,100118.88
2023-05-14T17:26:49.481Z,100120.06
2023-05-14T17:29:53.466Z,100115.94
2023-05-14T17:32:54.996Z,100109.13
2023-05-14T17:35:56.435Z,100109.34
2023-05-14T17:38:57.882Z,100113.22
2023-05-14T17:41:59.277Z,100119.06
2023-05-14T17:45:01.174Z,100126.25
2023-05-14T17:48:02.625Z,100130.19
2023-05-14T17:51:04.977Z,100131.56
2023-05-14T17:54:06.374Z,100127.00
2023-05-14T17:57:08.142Z,100134.19
2023-05-14T18:00:10.028Z,100128.56
2023-05-14T18:03:14.959Z,100126.03
2023-05-14T18:06:16.837Z,100128.72
2023-05-14T18:09:18.335Z,100126.03
2023-05-14T18:12:20.044Z,100118.66
2023-05-14T18:15:21.598Z,100124.50
2023-05-14T18:18:23.911Z,100124.16
2023-05-14T18:21:26.406Z,100130.09
2023-05-14T18:24:28.116Z,100131.78
2023-05-14T18:27:30.222Z,100138.78
2023-05-14T18:30:32.220Z,100141.22
2023-05-14T18:33:33.612Z,100134.63
2023-05-14T18:36:34.998Z,100147.00
2023-05-14T18:39:36.369Z,100146.00
2023-05-14T18:42:37.872Z,100141.44
2023-05-14T18:45:40.020Z,100142.75
2023-05-14T18:48:41.614Z,100143.84
2023-05-14T18:51:43.008Z,100150.59
2023-05-14T18:54:44.389Z,100151.34
2023-05-14T18:57:46.082Z,100151.19
2023-05-14T19:00:47.481Z,100154.63
2023-05-14T19:03:48.942Z,100158.03
2023-05-14T19:06:51.062Z,100159.56
2023-05-14T19:09:52.933Z,100152.00
2023-05-14T19:12:54.360Z,100169.22
2023-05-14T19:15:56.129Z,100180.75
2023-05-14T19:18:57.754Z,100183.31
2023-05-14T19:21:59.286Z,100188.81
2023-05-14T19:25:03.224Z,100176.88
2023-05-14T19:28:05.989Z,100183.19
2023-05-14T19:31:08.266Z,100174.75
2023-05-14T19:34:10.010Z,100178.75
2023-05-14T19:37:11.639Z,100182.38
2023-05-14T19:40:13.068Z,100187.75
2023-05-14T19:43:14.518Z,100186.91
2023-05-14T19:46:16.440Z,100200.31
2023-05-14T19:49:17.820Z,100190.91
2023-05-14T19:52:20.192Z,100190.13
2023-05-14T19:55:21.557Z,100197.44
2023-05-14T19:58:23.548Z,100193.84
2023-05-14T20:01:26.576Z,100195.53
2023-05-14T20:04:28.098Z,100190.22
2023-05-14T20:07:32.038Z,100183.94
2023-05-14T20:10:33.502Z,100176.66
2023-05-14T20:13:36.383Z,100172.69
2023-05-14T20:16:37.844Z,100177.25
2023-05-14T20:19:39.246Z,100184.53
2023-05-14T20:22:42.690Z,100190.97
2023-05-14T20:25:44.199Z,100198.31
2023-05-14T20:28:45.654Z,100205.31
2023-05-14T20:31:47.015Z,100202.22
2023-05-14T20:34:48.377Z,100199.06
2023-05-14T20:37:49.780Z,100192.72
2023-05-14T20:40:51.134Z,100201.72
2023-05-14T20:43:52.526Z,100190.97
2023-05-14T20:46:54.020Z,100182.00
2023-05-14T20:49:55.559Z,100180.50
2023-05-14T20:52:56.926Z,100171.66
2023-05-14T20:55:59.001Z,100176.50
2023-05-14T20:59:00.421Z,100177.00
2023-05-14T21:02:01.994Z,100171.22
2023-05-14T21:05:03.750Z,100167.22
2023-05-14T21:08:05.398Z,100172.19
2023-05-14T21:11:06.782Z,100166.38
2023-05-14T21:14:08.158Z,100179.28
2023-05-14T21:17:10.593Z,100177.91
2023-05-14T21:20:13.478Z,100176.50
2023-05-14T21:23:14.987Z,100168.34
2023-05-14T21:26:16.405Z,100164.34
2023-05-14T21:29:17.768Z,100171.03
2023-05-14T21:32:20.091Z,100159.72
2023-05-14T21:35:21.521Z,100156.56
2023-05-14T21:38:23.117Z,100170.81
2023-05-14T21:41:24.571Z,100165.38
2023-05-14T21:44:25.941Z,100151.78
2023-05-14T21:47:27.562Z,100152.34
2023-05-14T21:50:28.977Z,100149.69
2023-05-14T21:53:30.432Z,100145.72
2023-05-14T21:56:31.882Z,100146.09
2023-05-14T21:59:33.774Z,100143.22
2023-05-14T22:02:35.217Z,100145.47
2023-05-14T22:05:36.656Z,100148.56
2023-05-14T22:08:38.032Z,100149.91
2023-05-14T22:11:39.406Z,100145.13
2023-05-14T22:14:40.861Z,100138.19
2023-05-14T22:17:42.391Z,100130.50
2023-05-14T22:20:44.108Z,100127.84
2023-05-14T22:23:45.487Z,100121.38
2023-05-14T22:26:46.865Z,100124.25
2023-05-14T22:29:48.239Z,100122.31
2023-05-14T22:32:49.660Z,100123.25
2023-05-14T22:35:51.295Z,100130.47
2023-05-14T22:38:52.653Z,100121.34
2023-05-14T22:41:55.047Z,100125.13
2023-05-14T22:44:56.633Z,100131.09
2023-05-14T22:47:58.345Z,100127.66
2023-05-14T22:50:59.763Z,100124.81
2023-05-14T22:54:01.125Z,100126.59
2023-05-14T22:57:03.445Z,100126.03
2023-05-14T23:00:06.935Z,100128.88
2023-05-14T23:03:08.410Z,100136.97
2023-05-14T23:06:10.029Z,100137.09
2023-05-14T23:09:11.413Z,100137.22
2023-05-14T23:12:12.789Z,100141.22
2023-05-14T23:15:14.306Z,100133.50
2023-05-14T23:18:15.782Z,100138.19
2023-05-14T23:21:17.219Z,100138.19
2023-05-14T23:24:18.590Z,100142.97
2023-05-14T23:27:19.982Z,100132.75
2023-05-14T23:30:21.380Z,100137.66
2023-05-14T23:33:22.761Z,100131.47
2023-05-14T23:36:24.283Z,100124.78
2023-05-14T23:39:25.847Z,100127.53
2023-05-14T23:42:27.212Z,100116.47
2023-05-14T23:45:29.055Z,100112.56
2023-05-14T23:48:30.970Z,100109.91
2023-05-14T23:51:32.331Z,100114.63
2023-05-14T23:54:33.815Z,100109.25
2023-05-14T23:57:35.604Z,100109.41
